Main page
METAR-TAF:

METAR-TAF

Airports :

Haikou Meilan International Airport

Haikou, China

latitude: 19-56-05N, longitude: 110-27-32E, elevation: 23 m

Current weather observation

The report was made 58 minutes ago, at 09:00 UTC
Wind 8 kt from the Northeast, varying between North and East
Temperature 34°C
Humidity 56%
Pressure 1002 hPa
Visibility 10 km or more
no clouds below 1500 m and no cumulonimbus

METAR: ZJHK 250900Z 04004MPS 010V080 CAVOK 34/24 Q1002 NOSIG

Time: 17:58 (09:58 UTC)

Forecast

The report was made 6 hours and 48 minutes ago, at 03:10 UTC
Forecast valid from 25 at 06 UTC to 26 at 06 UTC
Wind 8 kt from the South/Southwest
Visibility 10 km or more
Scattered clouds at a height of 2000 ft
Temporary
from 25 at 07 UTC to 25 at 11 UTC
Scattered clouds at a height of 2000 ft
Few clouds at a height of 2300 ft, Cumulonimbus.

TAF: ZJHK 250310Z 2506/2606 20004MPS 9999 SCT020 TX37/2606Z TN27/2521Z TEMPO 2507/2511 SCT020 FEW023CB

Weather observations and forecasts of more than 4000 airports (METAR and TAF reports).

The available stations are represented by yellow and red dots on the map.

Hover mouse over dot to see the name of the station.

Then click to see weather observations and forecasts.

To change the map : click on the green buttons with a black cross to zoom in, on the green button with a dash to zoom out, or on the green arrows for adjacent maps.


METAR-TAF: